sensor_id;sensor_type;location;lat;lon;timestamp;P1;durP1;ratioP1;P2;durP2;ratioP2
31848;SDS011;18414;59.352;18.152;2023-09-08T00:02:12;7.13;;;2.83;;
31848;SDS011;18414;59.352;18.152;2023-09-08T00:04:37;5.30;;;2.42;;
31848;SDS011;18414;59.352;18.152;2023-09-08T00:07:03;6.10;;;2.20;;
31848;SDS011;18414;59.352;18.152;2023-09-08T00:09:29;5.38;;;2.30;;
31848;SDS011;18414;59.352;18.152;2023-09-08T00:11:54;4.55;;;2.40;;
31848;SDS011;18414;59.352;18.152;2023-09-08T00:14:19;6.55;;;2.50;;
31848;SDS011;18414;59.352;18.152;2023-09-08T00:16:45;6.18;;;2.60;;
31848;SDS011;18414;59.352;18.152;2023-09-08T00:19:10;4.78;;;2.47;;
31848;SDS011;18414;59.352;18.152;2023-09-08T00:21:36;5.10;;;2.83;;
31848;SDS011;18414;59.352;18.152;2023-09-08T00:24:01;6.10;;;2.92;;
31848;SDS011;18414;59.352;18.152;2023-09-08T00:26:27;6.45;;;2.80;;
31848;SDS011;18414;59.352;18.152;2023-09-08T00:28:52;4.25;;;2.50;;
31848;SDS011;18414;59.352;18.152;2023-09-08T00:31:17;4.38;;;2.55;;
31848;SDS011;18414;59.352;18.152;2023-09-08T00:33:43;4.60;;;2.88;;
31848;SDS011;18414;59.352;18.152;2023-09-08T00:36:10;4.55;;;2.70;;
31848;SDS011;18414;59.352;18.152;2023-09-08T00:38:35;5.85;;;2.53;;
31848;SDS011;18414;59.352;18.152;2023-09-08T00:41:00;8.43;;;2.63;;
31848;SDS011;18414;59.352;18.152;2023-09-08T00:43:26;7.15;;;2.50;;
31848;SDS011;18414;59.352;18.152;2023-09-08T00:45:51;7.25;;;2.50;;
31848;SDS011;18414;59.352;18.152;2023-09-08T00:48:18;5.07;;;2.45;;
31848;SDS011;18414;59.352;18.152;2023-09-08T00:50:43;7.07;;;2.60;;
31848;SDS011;18414;59.352;18.152;2023-09-08T00:53:09;3.58;;;2.50;;
31848;SDS011;18414;59.352;18.152;2023-09-08T00:55:35;3.72;;;2.58;;
31848;SDS011;18414;59.352;18.152;2023-09-08T00:58:01;4.95;;;2.60;;
31848;SDS011;18414;59.352;18.152;2023-09-08T01:00:27;3.60;;;2.63;;
31848;SDS011;18414;59.352;18.152;2023-09-08T01:02:52;4.07;;;2.90;;
31848;SDS011;18414;59.352;18.152;2023-09-08T01:05:17;3.72;;;2.55;;
31848;SDS011;18414;59.352;18.152;2023-09-08T01:07:43;5.90;;;2.72;;
31848;SDS011;18414;59.352;18.152;2023-09-08T01:10:10;7.18;;;3.17;;
31848;SDS011;18414;59.352;18.152;2023-09-08T01:12:35;4.20;;;2.78;;
31848;SDS011;18414;59.352;18.152;2023-09-08T01:15:01;5.57;;;3.00;;
31848;SDS011;18414;59.352;18.152;2023-09-08T01:17:27;5.75;;;2.78;;
31848;SDS011;18414;59.352;18.152;2023-09-08T01:19:55;5.28;;;3.13;;
31848;SDS011;18414;59.352;18.152;2023-09-08T01:22:29;4.00;;;3.00;;
31848;SDS011;18414;59.352;18.152;2023-09-08T01:25:18;4.55;;;3.35;;
31848;SDS011;18414;59.352;18.152;2023-09-08T01:27:46;5.15;;;3.13;;
31848;SDS011;18414;59.352;18.152;2023-09-08T01:30:13;4.35;;;2.85;;
31848;SDS011;18414;59.352;18.152;2023-09-08T01:32:39;5.78;;;3.30;;
31848;SDS011;18414;59.352;18.152;2023-09-08T01:35:05;6.13;;;3.60;;
31848;SDS011;18414;59.352;18.152;2023-09-08T01:37:30;4.32;;;3.60;;
31848;SDS011;18414;59.352;18.152;2023-09-08T01:39:56;4.35;;;3.33;;
31848;SDS011;18414;59.352;18.152;2023-09-08T01:42:21;4.70;;;3.50;;
31848;SDS011;18414;59.352;18.152;2023-09-08T01:44:46;5.82;;;3.60;;
31848;SDS011;18414;59.352;18.152;2023-09-08T01:47:12;5.35;;;3.92;;
31848;SDS011;18414;59.352;18.152;2023-09-08T01:49:37;4.28;;;3.58;;
31848;SDS011;18414;59.352;18.152;2023-09-08T01:52:03;5.35;;;3.47;;
31848;SDS011;18414;59.352;18.152;2023-09-08T01:54:29;4.55;;;3.92;;
31848;SDS011;18414;59.352;18.152;2023-09-08T01:56:55;5.55;;;3.85;;
31848;SDS011;18414;59.352;18.152;2023-09-08T01:59:20;4.43;;;3.80;;
31848;SDS011;18414;59.352;18.152;2023-09-08T02:01:46;6.72;;;4.20;;
31848;SDS011;18414;59.352;18.152;2023-09-08T02:04:11;5.95;;;3.95;;
31848;SDS011;18414;59.352;18.152;2023-09-08T02:06:36;8.18;;;3.90;;
31848;SDS011;18414;59.352;18.152;2023-09-08T02:09:02;5.03;;;3.35;;
31848;SDS011;18414;59.352;18.152;2023-09-08T02:11:27;5.10;;;3.40;;
31848;SDS011;18414;59.352;18.152;2023-09-08T02:13:52;3.72;;;2.90;;
31848;SDS011;18414;59.352;18.152;2023-09-08T02:16:18;3.50;;;2.72;;
31848;SDS011;18414;59.352;18.152;2023-09-08T02:18:43;4.38;;;2.80;;
31848;SDS011;18414;59.352;18.152;2023-09-08T02:21:09;3.25;;;2.83;;
31848;SDS011;18414;59.352;18.152;2023-09-08T02:23:35;4.38;;;3.03;;
31848;SDS011;18414;59.352;18.152;2023-09-08T02:26:00;3.78;;;2.50;;
31848;SDS011;18414;59.352;18.152;2023-09-08T02:28:26;3.47;;;3.03;;
31848;SDS011;18414;59.352;18.152;2023-09-08T02:30:51;4.63;;;3.30;;
31848;SDS011;18414;59.352;18.152;2023-09-08T02:33:17;3.72;;;3.28;;
31848;SDS011;18414;59.352;18.152;2023-09-08T02:35:43;5.40;;;3.65;;
31848;SDS011;18414;59.352;18.152;2023-09-08T02:38:08;5.57;;;3.78;;
31848;SDS011;18414;59.352;18.152;2023-09-08T02:40:33;6.05;;;3.95;;
31848;SDS011;18414;59.352;18.152;2023-09-08T02:43:02;5.10;;;3.70;;
31848;SDS011;18414;59.352;18.152;2023-09-08T02:45:28;4.75;;;3.97;;
31848;SDS011;18414;59.352;18.152;2023-09-08T02:47:54;4.90;;;3.85;;
31848;SDS011;18414;59.352;18.152;2023-09-08T02:50:19;6.68;;;3.95;;
31848;SDS011;18414;59.352;18.152;2023-09-08T02:52:44;4.30;;;3.50;;
31848;SDS011;18414;59.352;18.152;2023-09-08T02:55:10;7.00;;;4.30;;
31848;SDS011;18414;59.352;18.152;2023-09-08T02:57:38;4.95;;;3.75;;
31848;SDS011;18414;59.352;18.152;2023-09-08T03:00:04;6.47;;;4.20;;
31848;SDS011;18414;59.352;18.152;2023-09-08T03:02:30;5.50;;;3.17;;
31848;SDS011;18414;59.352;18.152;2023-09-08T03:04:57;4.45;;;3.53;;
31848;SDS011;18414;59.352;18.152;2023-09-08T03:07:22;6.32;;;4.30;;
31848;SDS011;18414;59.352;18.152;2023-09-08T03:09:47;5.63;;;3.88;;
31848;SDS011;18414;59.352;18.152;2023-09-08T03:12:13;4.32;;;3.60;;
31848;SDS011;18414;59.352;18.152;2023-09-08T03:14:39;6.93;;;4.63;;
31848;SDS011;18414;59.352;18.152;2023-09-08T03:17:04;5.93;;;4.53;;
31848;SDS011;18414;59.352;18.152;2023-09-08T03:19:30;3.42;;;3.13;;
31848;SDS011;18414;59.352;18.152;2023-09-08T03:21:55;3.50;;;3.20;;
31848;SDS011;18414;59.352;18.152;2023-09-08T03:24:21;7.13;;;4.35;;
31848;SDS011;18414;59.352;18.152;2023-09-08T03:26:46;4.38;;;3.40;;
31848;SDS011;18414;59.352;18.152;2023-09-08T03:29:11;3.35;;;3.05;;
31848;SDS011;18414;59.352;18.152;2023-09-08T03:31:37;6.25;;;4.35;;
31848;SDS011;18414;59.352;18.152;2023-09-08T03:34:02;5.93;;;5.07;;
31848;SDS011;18414;59.352;18.152;2023-09-08T03:36:27;5.22;;;3.92;;
31848;SDS011;18414;59.352;18.152;2023-09-08T03:38:53;5.18;;;4.60;;
31848;SDS011;18414;59.352;18.152;2023-09-08T03:41:18;7.43;;;5.40;;
31848;SDS011;18414;59.352;18.152;2023-09-08T03:43:43;7.20;;;6.15;;
31848;SDS011;18414;59.352;18.152;2023-09-08T03:46:09;4.00;;;3.60;;
31848;SDS011;18414;59.352;18.152;2023-09-08T03:48:34;5.20;;;4.05;;
31848;SDS011;18414;59.352;18.152;2023-09-08T03:50:59;7.75;;;5.10;;
31848;SDS011;18414;59.352;18.152;2023-09-08T03:53:25;6.57;;;4.18;;
31848;SDS011;18414;59.352;18.152;2023-09-08T03:55:51;5.50;;;4.50;;
31848;SDS011;18414;59.352;18.152;2023-09-08T03:58:16;6.35;;;4.80;;
31848;SDS011;18414;59.352;18.152;2023-09-08T04:00:41;6.72;;;4.65;;
31848;SDS011;18414;59.352;18.152;2023-09-08T04:03:07;6.47;;;4.80;;
31848;SDS011;18414;59.352;18.152;2023-09-08T04:05:33;5.95;;;4.13;;
31848;SDS011;18414;59.352;18.152;2023-09-08T04:07:58;4.18;;;3.78;;
31848;SDS011;18414;59.352;18.152;2023-09-08T04:10:24;10.40;;;6.85;;
31848;SDS011;18414;59.352;18.152;2023-09-08T04:12:49;8.77;;;6.25;;
31848;SDS011;18414;59.352;18.152;2023-09-08T04:15:14;8.13;;;7.10;;
31848;SDS011;18414;59.352;18.152;2023-09-08T04:17:40;8.88;;;6.90;;
31848;SDS011;18414;59.352;18.152;2023-09-08T04:20:06;8.70;;;7.07;;
31848;SDS011;18414;59.352;18.152;2023-09-08T04:22:32;6.38;;;5.15;;
31848;SDS011;18414;59.352;18.152;2023-09-08T04:24:58;10.40;;;7.20;;
31848;SDS011;18414;59.352;18.152;2023-09-08T04:27:24;11.13;;;7.28;;
31848;SDS011;18414;59.352;18.152;2023-09-08T04:29:49;9.25;;;6.63;;
31848;SDS011;18414;59.352;18.152;2023-09-08T04:32:15;8.00;;;7.00;;
31848;SDS011;18414;59.352;18.152;2023-09-08T04:34:41;8.93;;;6.53;;
31848;SDS011;18414;59.352;18.152;2023-09-08T04:37:07;8.00;;;6.53;;
31848;SDS011;18414;59.352;18.152;2023-09-08T04:39:33;8.23;;;6.70;;
31848;SDS011;18414;59.352;18.152;2023-09-08T04:41:59;7.78;;;5.20;;
31848;SDS011;18414;59.352;18.152;2023-09-08T04:44:24;10.88;;;7.15;;
31848;SDS011;18414;59.352;18.152;2023-09-08T04:46:50;7.78;;;6.80;;
31848;SDS011;18414;59.352;18.152;2023-09-08T04:49:18;9.27;;;7.15;;
31848;SDS011;18414;59.352;18.152;2023-09-08T04:51:44;8.95;;;7.10;;
31848;SDS011;18414;59.352;18.152;2023-09-08T04:54:10;8.77;;;7.75;;
31848;SDS011;18414;59.352;18.152;2023-09-08T04:56:35;11.35;;;7.88;;
31848;SDS011;18414;59.352;18.152;2023-09-08T04:59:00;11.07;;;6.60;;
31848;SDS011;18414;59.352;18.152;2023-09-08T05:01:29;9.05;;;6.75;;
31848;SDS011;18414;59.352;18.152;2023-09-08T05:03:58;9.02;;;7.13;;
31848;SDS011;18414;59.352;18.152;2023-09-08T05:06:24;7.18;;;6.45;;
31848;SDS011;18414;59.352;18.152;2023-09-08T05:08:49;8.98;;;7.78;;
31848;SDS011;18414;59.352;18.152;2023-09-08T05:11:15;10.60;;;8.20;;
31848;SDS011;18414;59.352;18.152;2023-09-08T05:13:40;8.52;;;6.78;;
31848;SDS011;18414;59.352;18.152;2023-09-08T05:16:06;9.30;;;7.75;;
31848;SDS011;18414;59.352;18.152;2023-09-08T05:18:40;9.10;;;7.43;;
31848;SDS011;18414;59.352;18.152;2023-09-08T05:21:06;8.63;;;6.80;;
31848;SDS011;18414;59.352;18.152;2023-09-08T05:23:32;9.25;;;7.57;;
31848;SDS011;18414;59.352;18.152;2023-09-08T05:25:58;9.27;;;7.72;;
31848;SDS011;18414;59.352;18.152;2023-09-08T05:28:23;8.00;;;7.18;;
31848;SDS011;18414;59.352;18.152;2023-09-08T05:30:52;8.35;;;7.35;;
31848;SDS011;18414;59.352;18.152;2023-09-08T05:33:18;9.32;;;7.13;;
31848;SDS011;18414;59.352;18.152;2023-09-08T05:35:44;8.77;;;7.30;;
31848;SDS011;18414;59.352;18.152;2023-09-08T05:38:10;9.93;;;8.30;;
31848;SDS011;18414;59.352;18.152;2023-09-08T05:40:35;10.07;;;7.47;;
31848;SDS011;18414;59.352;18.152;2023-09-08T05:43:00;9.93;;;8.30;;
31848;SDS011;18414;59.352;18.152;2023-09-08T05:45:26;7.88;;;6.93;;
31848;SDS011;18414;59.352;18.152;2023-09-08T05:47:51;8.82;;;7.93;;
31848;SDS011;18414;59.352;18.152;2023-09-08T05:50:17;8.63;;;7.68;;
31848;SDS011;18414;59.352;18.152;2023-09-08T05:52:42;8.73;;;6.78;;
31848;SDS011;18414;59.352;18.152;2023-09-08T05:55:08;6.82;;;6.13;;
31848;SDS011;18414;59.352;18.152;2023-09-08T05:57:34;12.60;;;7.85;;
31848;SDS011;18414;59.352;18.152;2023-09-08T05:59:59;7.60;;;6.90;;
31848;SDS011;18414;59.352;18.152;2023-09-08T06:02:26;9.48;;;7.82;;
31848;SDS011;18414;59.352;18.152;2023-09-08T06:04:52;8.45;;;7.63;;
31848;SDS011;18414;59.352;18.152;2023-09-08T06:07:17;8.50;;;7.60;;
31848;SDS011;18414;59.352;18.152;2023-09-08T06:09:43;11.38;;;7.35;;
31848;SDS011;18414;59.352;18.152;2023-09-08T06:12:08;10.32;;;7.80;;
31848;SDS011;18414;59.352;18.152;2023-09-08T06:14:34;10.30;;;7.10;;
31848;SDS011;18414;59.352;18.152;2023-09-08T06:16:59;8.70;;;7.05;;
31848;SDS011;18414;59.352;18.152;2023-09-08T06:19:25;6.85;;;6.13;;
31848;SDS011;18414;59.352;18.152;2023-09-08T06:21:50;7.28;;;6.57;;
31848;SDS011;18414;59.352;18.152;2023-09-08T06:24:17;7.10;;;6.32;;
31848;SDS011;18414;59.352;18.152;2023-09-08T06:26:44;10.60;;;7.38;;
31848;SDS011;18414;59.352;18.152;2023-09-08T06:29:09;8.65;;;7.75;;
31848;SDS011;18414;59.352;18.152;2023-09-08T06:31:36;7.88;;;7.07;;
31848;SDS011;18414;59.352;18.152;2023-09-08T06:34:01;9.55;;;7.20;;
31848;SDS011;18414;59.352;18.152;2023-09-08T06:36:27;8.48;;;6.68;;
31848;SDS011;18414;59.352;18.152;2023-09-08T06:38:52;7.95;;;7.15;;
31848;SDS011;18414;59.352;18.152;2023-09-08T06:41:17;7.50;;;6.68;;
31848;SDS011;18414;59.352;18.152;2023-09-08T06:43:43;8.13;;;6.65;;
31848;SDS011;18414;59.352;18.152;2023-09-08T06:46:09;8.07;;;7.20;;
31848;SDS011;18414;59.352;18.152;2023-09-08T06:48:34;7.53;;;6.80;;
31848;SDS011;18414;59.352;18.152;2023-09-08T06:51:00;8.18;;;7.15;;
31848;SDS011;18414;59.352;18.152;2023-09-08T06:53:27;8.80;;;6.47;;
31848;SDS011;18414;59.352;18.152;2023-09-08T06:55:52;7.68;;;6.82;;
31848;SDS011;18414;59.352;18.152;2023-09-08T06:58:18;6.85;;;5.43;;
31848;SDS011;18414;59.352;18.152;2023-09-08T07:00:43;7.22;;;6.55;;
31848;SDS011;18414;59.352;18.152;2023-09-08T07:03:08;6.93;;;5.90;;
31848;SDS011;18414;59.352;18.152;2023-09-08T07:05:34;7.35;;;6.63;;
31848;SDS011;18414;59.352;18.152;2023-09-08T07:08:00;7.78;;;6.30;;
31848;SDS011;18414;59.352;18.152;2023-09-08T07:10:25;8.80;;;6.28;;
31848;SDS011;18414;59.352;18.152;2023-09-08T07:12:50;8.10;;;6.35;;
31848;SDS011;18414;59.352;18.152;2023-09-08T07:15:16;6.55;;;5.95;;
31848;SDS011;18414;59.352;18.152;2023-09-08T07:17:41;7.25;;;6.20;;
31848;SDS011;18414;59.352;18.152;2023-09-08T07:20:07;7.00;;;6.40;;
31848;SDS011;18414;59.352;18.152;2023-09-08T07:22:34;8.90;;;6.25;;
31848;SDS011;18414;59.352;18.152;2023-09-08T07:24:59;6.38;;;5.75;;
31848;SDS011;18414;59.352;18.152;2023-09-08T07:27:24;8.00;;;6.53;;
31848;SDS011;18414;59.352;18.152;2023-09-08T07:29:50;7.78;;;6.13;;
31848;SDS011;18414;59.352;18.152;2023-09-08T07:32:15;6.90;;;5.82;;
31848;SDS011;18414;59.352;18.152;2023-09-08T07:34:41;7.57;;;6.35;;
31848;SDS011;18414;59.352;18.152;2023-09-08T07:37:07;7.20;;;5.50;;
31848;SDS011;18414;59.352;18.152;2023-09-08T07:39:32;8.32;;;6.93;;
31848;SDS011;18414;59.352;18.152;2023-09-08T07:42:00;9.55;;;6.00;;
31848;SDS011;18414;59.352;18.152;2023-09-08T07:44:26;6.60;;;5.95;;
31848;SDS011;18414;59.352;18.152;2023-09-08T07:46:53;7.07;;;6.38;;
31848;SDS011;18414;59.352;18.152;2023-09-08T07:49:20;9.43;;;5.95;;
31848;SDS011;18414;59.352;18.152;2023-09-08T07:51:46;6.78;;;5.57;;
31848;SDS011;18414;59.352;18.152;2023-09-08T07:54:12;7.40;;;6.25;;
31848;SDS011;18414;59.352;18.152;2023-09-08T07:56:37;7.55;;;5.97;;
31848;SDS011;18414;59.352;18.152;2023-09-08T07:59:03;6.18;;;5.57;;
31848;SDS011;18414;59.352;18.152;2023-09-08T08:01:28;7.63;;;6.35;;
31848;SDS011;18414;59.352;18.152;2023-09-08T08:03:53;8.00;;;6.93;;
31848;SDS011;18414;59.352;18.152;2023-09-08T08:06:19;7.35;;;6.05;;
31848;SDS011;18414;59.352;18.152;2023-09-08T08:08:44;9.60;;;6.55;;
31848;SDS011;18414;59.352;18.152;2023-09-08T08:11:11;10.68;;;6.40;;
31848;SDS011;18414;59.352;18.152;2023-09-08T08:13:37;7.63;;;6.05;;
31848;SDS011;18414;59.352;18.152;2023-09-08T08:16:03;7.60;;;6.53;;
31848;SDS011;18414;59.352;18.152;2023-09-08T08:18:28;8.98;;;6.75;;
31848;SDS011;18414;59.352;18.152;2023-09-08T08:20:53;7.55;;;6.30;;
31848;SDS011;18414;59.352;18.152;2023-09-08T08:23:19;9.13;;;6.43;;
31848;SDS011;18414;59.352;18.152;2023-09-08T08:25:44;7.15;;;6.45;;
31848;SDS011;18414;59.352;18.152;2023-09-08T08:28:09;6.82;;;6.10;;
31848;SDS011;18414;59.352;18.152;2023-09-08T08:30:35;7.00;;;6.30;;
31848;SDS011;18414;59.352;18.152;2023-09-08T08:33:01;7.68;;;6.03;;
31848;SDS011;18414;59.352;18.152;2023-09-08T08:35:27;7.32;;;6.20;;
31848;SDS011;18414;59.352;18.152;2023-09-08T08:37:52;7.05;;;6.13;;
31848;SDS011;18414;59.352;18.152;2023-09-08T08:40:17;9.17;;;6.40;;
31848;SDS011;18414;59.352;18.152;2023-09-08T08:42:43;6.88;;;6.03;;
31848;SDS011;18414;59.352;18.152;2023-09-08T08:45:09;7.78;;;6.40;;
31848;SDS011;18414;59.352;18.152;2023-09-08T08:47:35;5.80;;;5.20;;
31848;SDS011;18414;59.352;18.152;2023-09-08T08:50:01;7.80;;;6.28;;
31848;SDS011;18414;59.352;18.152;2023-09-08T08:52:27;6.47;;;5.88;;
31848;SDS011;18414;59.352;18.152;2023-09-08T08:54:54;8.73;;;5.95;;
31848;SDS011;18414;59.352;18.152;2023-09-08T08:57:21;6.95;;;5.88;;
31848;SDS011;18414;59.352;18.152;2023-09-08T08:59:47;8.55;;;6.13;;
31848;SDS011;18414;59.352;18.152;2023-09-08T09:02:14;6.50;;;5.75;;
31848;SDS011;18414;59.352;18.152;2023-09-08T09:04:39;8.25;;;6.32;;
31848;SDS011;18414;59.352;18.152;2023-09-08T09:07:06;6.35;;;5.63;;
31848;SDS011;18414;59.352;18.152;2023-09-08T09:09:32;6.22;;;5.63;;
31848;SDS011;18414;59.352;18.152;2023-09-08T09:11:58;8.90;;;6.10;;
31848;SDS011;18414;59.352;18.152;2023-09-08T09:14:23;6.35;;;5.75;;
31848;SDS011;18414;59.352;18.152;2023-09-08T09:16:49;8.40;;;5.97;;
31848;SDS011;18414;59.352;18.152;2023-09-08T09:19:19;7.25;;;6.20;;
31848;SDS011;18414;59.352;18.152;2023-09-08T09:21:51;6.55;;;5.80;;
31848;SDS011;18414;59.352;18.152;2023-09-08T09:24:41;6.78;;;5.82;;
31848;SDS011;18414;59.352;18.152;2023-09-08T09:27:08;7.80;;;5.95;;
31848;SDS011;18414;59.352;18.152;2023-09-08T09:29:43;7.45;;;5.75;;
31848;SDS011;18414;59.352;18.152;2023-09-08T09:32:12;7.32;;;5.88;;
31848;SDS011;18414;59.352;18.152;2023-09-08T09:37:32;7.50;;;6.30;;
31848;SDS011;18414;59.352;18.152;2023-09-08T09:39:59;8.23;;;5.80;;
31848;SDS011;18414;59.352;18.152;2023-09-08T09:42:25;7.40;;;5.97;;
31848;SDS011;18414;59.352;18.152;2023-09-08T09:44:52;7.57;;;5.55;;
31848;SDS011;18414;59.352;18.152;2023-09-08T09:47:21;7.95;;;6.00;;
31848;SDS011;18414;59.352;18.152;2023-09-08T09:49:47;6.65;;;5.82;;
31848;SDS011;18414;59.352;18.152;2023-09-08T09:52:14;6.93;;;5.75;;
31848;SDS011;18414;59.352;18.152;2023-09-08T09:54:44;6.30;;;5.70;;
31848;SDS011;18414;59.352;18.152;2023-09-08T09:57:11;7.43;;;5.65;;
31848;SDS011;18414;59.352;18.152;2023-09-08T09:59:38;8.00;;;5.50;;
31848;SDS011;18414;59.352;18.152;2023-09-08T10:02:17;7.50;;;5.63;;
31848;SDS011;18414;59.352;18.152;2023-09-08T10:04:47;6.22;;;5.60;;
31848;SDS011;18414;59.352;18.152;2023-09-08T10:07:14;6.47;;;5.70;;
31848;SDS011;18414;59.352;18.152;2023-09-08T10:09:40;7.10;;;5.50;;
31848;SDS011;18414;59.352;18.152;2023-09-08T10:12:05;7.78;;;5.70;;
31848;SDS011;18414;59.352;18.152;2023-09-08T10:14:31;7.72;;;5.40;;
31848;SDS011;18414;59.352;18.152;2023-09-08T10:16:59;6.35;;;5.10;;
31848;SDS011;18414;59.352;18.152;2023-09-08T10:19:25;6.05;;;5.10;;
31848;SDS011;18414;59.352;18.152;2023-09-08T10:21:54;5.75;;;5.20;;
31848;SDS011;18414;59.352;18.152;2023-09-08T10:24:27;8.00;;;5.22;;
31848;SDS011;18414;59.352;18.152;2023-09-08T10:29:34;6.00;;;4.65;;
31848;SDS011;18414;59.352;18.152;2023-09-08T10:32:00;5.75;;;5.13;;
31848;SDS011;18414;59.352;18.152;2023-09-08T10:34:26;6.22;;;4.93;;
31848;SDS011;18414;59.352;18.152;2023-09-08T10:36:52;5.25;;;4.75;;
31848;SDS011;18414;59.352;18.152;2023-09-08T10:39:31;6.60;;;4.97;;
31848;SDS011;18414;59.352;18.152;2023-09-08T10:47:12;5.85;;;5.03;;
31848;SDS011;18414;59.352;18.152;2023-09-08T10:49:38;5.15;;;4.65;;
31848;SDS011;18414;59.352;18.152;2023-09-08T10:52:07;5.25;;;4.75;;
31848;SDS011;18414;59.352;18.152;2023-09-08T10:54:40;5.88;;;5.10;;
31848;SDS011;18414;59.352;18.152;2023-09-08T10:57:16;7.03;;;4.70;;
31848;SDS011;18414;59.352;18.152;2023-09-08T10:59:58;4.88;;;4.38;;
31848;SDS011;18414;59.352;18.152;2023-09-08T11:02:35;6.57;;;4.60;;
31848;SDS011;18414;59.352;18.152;2023-09-08T11:05:06;5.40;;;4.57;;
31848;SDS011;18414;59.352;18.152;2023-09-08T11:07:38;5.70;;;4.50;;
31848;SDS011;18414;59.352;18.152;2023-09-08T11:10:04;4.47;;;4.07;;
31848;SDS011;18414;59.352;18.152;2023-09-08T11:12:30;5.15;;;4.65;;
31848;SDS011;18414;59.352;18.152;2023-09-08T11:14:56;4.70;;;4.30;;
31848;SDS011;18414;59.352;18.152;2023-09-08T11:17:25;6.07;;;4.38;;
31848;SDS011;18414;59.352;18.152;2023-09-08T11:19:51;5.20;;;4.60;;
31848;SDS011;18414;59.352;18.152;2023-09-08T11:22:16;6.05;;;4.60;;
31848;SDS011;18414;59.352;18.152;2023-09-08T11:24:42;5.10;;;4.60;;
31848;SDS011;18414;59.352;18.152;2023-09-08T11:27:08;4.88;;;4.38;;
31848;SDS011;18414;59.352;18.152;2023-09-08T11:29:34;7.15;;;4.43;;
31848;SDS011;18414;59.352;18.152;2023-09-08T11:32:00;5.25;;;4.25;;
31848;SDS011;18414;59.352;18.152;2023-09-08T11:34:25;7.45;;;3.90;;
31848;SDS011;18414;59.352;18.152;2023-09-08T11:36:51;4.68;;;4.10;;
31848;SDS011;18414;59.352;18.152;2023-09-08T11:39:17;4.80;;;4.30;;
31848;SDS011;18414;59.352;18.152;2023-09-08T11:41:43;5.68;;;4.00;;
31848;SDS011;18414;59.352;18.152;2023-09-08T11:44:14;4.47;;;3.83;;
31848;SDS011;18414;59.352;18.152;2023-09-08T11:46:40;5.75;;;4.10;;
31848;SDS011;18414;59.352;18.152;2023-09-08T11:49:06;4.45;;;3.70;;
31848;SDS011;18414;59.352;18.152;2023-09-08T11:51:31;5.93;;;3.65;;
31848;SDS011;18414;59.352;18.152;2023-09-08T11:53:56;6.10;;;4.00;;
31848;SDS011;18414;59.352;18.152;2023-09-08T11:56:22;4.63;;;4.00;;
31848;SDS011;18414;59.352;18.152;2023-09-08T11:58:47;5.05;;;3.88;;
31848;SDS011;18414;59.352;18.152;2023-09-08T12:01:13;5.35;;;3.95;;
31848;SDS011;18414;59.352;18.152;2023-09-08T12:03:51;6.05;;;3.90;;
31848;SDS011;18414;59.352;18.152;2023-09-08T12:06:17;4.82;;;4.07;;
31848;SDS011;18414;59.352;18.152;2023-09-08T12:08:43;6.88;;;4.10;;
31848;SDS011;18414;59.352;18.152;2023-09-08T12:11:10;5.40;;;4.47;;
31848;SDS011;18414;59.352;18.152;2023-09-08T12:13:35;5.10;;;4.57;;
31848;SDS011;18414;59.352;18.152;2023-09-08T12:16:00;10.80;;;5.03;;
31848;SDS011;18414;59.352;18.152;2023-09-08T12:18:38;6.68;;;4.60;;
31848;SDS011;18414;59.352;18.152;2023-09-08T12:21:04;6.00;;;4.80;;
31848;SDS011;18414;59.352;18.152;2023-09-08T12:23:30;6.30;;;4.80;;
31848;SDS011;18414;59.352;18.152;2023-09-08T12:25:56;7.72;;;4.70;;
31848;SDS011;18414;59.352;18.152;2023-09-08T12:28:22;8.00;;;4.57;;
31848;SDS011;18414;59.352;18.152;2023-09-08T12:30:50;5.55;;;4.40;;
31848;SDS011;18414;59.352;18.152;2023-09-08T12:33:16;6.68;;;4.40;;
31848;SDS011;18414;59.352;18.152;2023-09-08T12:35:44;8.63;;;4.32;;
31848;SDS011;18414;59.352;18.152;2023-09-08T12:38:11;6.00;;;3.42;;
31848;SDS011;18414;59.352;18.152;2023-09-08T12:40:37;3.95;;;3.25;;
31848;SDS011;18414;59.352;18.152;2023-09-08T12:43:03;9.65;;;3.70;;
31848;SDS011;18414;59.352;18.152;2023-09-08T12:45:28;6.53;;;3.63;;
31848;SDS011;18414;59.352;18.152;2023-09-08T12:47:58;5.57;;;3.78;;
31848;SDS011;18414;59.352;18.152;2023-09-08T12:50:26;4.60;;;4.00;;
31848;SDS011;18414;59.352;18.152;2023-09-08T12:52:51;5.05;;;4.10;;
31848;SDS011;18414;59.352;18.152;2023-09-08T12:55:18;6.20;;;4.20;;
31848;SDS011;18414;59.352;18.152;2023-09-08T12:57:43;6.05;;;4.35;;
31848;SDS011;18414;59.352;18.152;2023-09-08T13:00:09;6.68;;;3.83;;
31848;SDS011;18414;59.352;18.152;2023-09-08T13:02:36;7.15;;;4.10;;
31848;SDS011;18414;59.352;18.152;2023-09-08T13:05:02;5.50;;;4.25;;
31848;SDS011;18414;59.352;18.152;2023-09-08T13:07:27;6.55;;;4.13;;
31848;SDS011;18414;59.352;18.152;2023-09-08T13:09:53;5.00;;;4.20;;
31848;SDS011;18414;59.352;18.152;2023-09-08T13:12:19;4.72;;;4.30;;
31848;SDS011;18414;59.352;18.152;2023-09-08T13:14:44;5.72;;;4.07;;
31848;SDS011;18414;59.352;18.152;2023-09-08T13:17:10;6.43;;;4.47;;
31848;SDS011;18414;59.352;18.152;2023-09-08T13:19:36;5.80;;;4.30;;
31848;SDS011;18414;59.352;18.152;2023-09-08T13:22:03;8.65;;;4.20;;
31848;SDS011;18414;59.352;18.152;2023-09-08T13:24:30;5.07;;;4.13;;
31848;SDS011;18414;59.352;18.152;2023-09-08T13:26:56;5.30;;;4.20;;
31848;SDS011;18414;59.352;18.152;2023-09-08T13:29:21;6.43;;;4.20;;
31848;SDS011;18414;59.352;18.152;2023-09-08T13:31:47;4.18;;;3.78;;
31848;SDS011;18414;59.352;18.152;2023-09-08T13:34:12;5.53;;;4.03;;
31848;SDS011;18414;59.352;18.152;2023-09-08T13:36:38;5.43;;;4.32;;
31848;SDS011;18414;59.352;18.152;2023-09-08T13:39:03;6.70;;;4.40;;
31848;SDS011;18414;59.352;18.152;2023-09-08T13:44:17;6.90;;;4.50;;
31848;SDS011;18414;59.352;18.152;2023-09-08T13:46:43;3.03;;;2.60;;
31848;SDS011;18414;59.352;18.152;2023-09-08T13:49:11;5.72;;;4.30;;
31848;SDS011;18414;59.352;18.152;2023-09-08T13:51:36;5.40;;;3.88;;
31848;SDS011;18414;59.352;18.152;2023-09-08T13:54:02;5.50;;;4.18;;
31848;SDS011;18414;59.352;18.152;2023-09-08T13:56:27;5.85;;;4.47;;
31848;SDS011;18414;59.352;18.152;2023-09-08T13:58:53;4.45;;;2.97;;
31848;SDS011;18414;59.352;18.152;2023-09-08T14:01:18;4.38;;;3.05;;
31848;SDS011;18414;59.352;18.152;2023-09-08T14:03:43;5.15;;;4.65;;
31848;SDS011;18414;59.352;18.152;2023-09-08T14:06:09;4.13;;;3.30;;
31848;SDS011;18414;59.352;18.152;2023-09-08T14:08:34;3.97;;;3.30;;
31848;SDS011;18414;59.352;18.152;2023-09-08T14:11:00;4.63;;;3.97;;
31848;SDS011;18414;59.352;18.152;2023-09-08T14:13:25;4.70;;;3.75;;
31848;SDS011;18414;59.352;18.152;2023-09-08T14:15:53;5.35;;;3.60;;
31848;SDS011;18414;59.352;18.152;2023-09-08T14:18:19;5.18;;;3.92;;
31848;SDS011;18414;59.352;18.152;2023-09-08T14:20:44;3.92;;;3.20;;
31848;SDS011;18414;59.352;18.152;2023-09-08T14:23:10;4.50;;;3.80;;
31848;SDS011;18414;59.352;18.152;2023-09-08T14:25:35;3.97;;;3.60;;
31848;SDS011;18414;59.352;18.152;2023-09-08T14:28:01;8.73;;;3.78;;
31848;SDS011;18414;59.352;18.152;2023-09-08T14:30:28;3.42;;;3.13;;
31848;SDS011;18414;59.352;18.152;2023-09-08T14:32:54;6.07;;;3.38;;
31848;SDS011;18414;59.352;18.152;2023-09-08T14:35:19;7.13;;;3.72;;
31848;SDS011;18414;59.352;18.152;2023-09-08T14:37:46;3.72;;;3.30;;
31848;SDS011;18414;59.352;18.152;2023-09-08T14:40:12;4.63;;;4.15;;
31848;SDS011;18414;59.352;18.152;2023-09-08T14:42:38;6.18;;;3.83;;